<?xml version="1.0" encoding="UTF-8" standalone="no" ?>
<gpx xmlns="http://www.topografix.com/GPX/1/1" xmlns:xsi="http://www.w3.org/2001/XMLSchema-instance" xsi:schemaLocation="http://www.topografix.com/GPX/1/1 http://www.topografix.com/GPX/1/1/gpx.xsd" version="1.1" creator="VisuGPX - https://www.visugpx.com">
  <metadata>
    <name>Col de Bovinant tricotage</name>
    <desc><![CDATA[Au départ de la Ruchère, Col de Léchaud, Col de Bovinant, Col du Fret, Crète direction Gd Som, Petit Som.]]></desc>
  </metadata>
  <trk>
    <name><![CDATA[Col du Fret]]></name>
    <trkseg>
      <trkpt lat="45.40021" lon="5.79976">
        <ele>1139</ele>
        <time>2012-02-18T08:32:54Z</time>
      </trkpt>
      <trkpt lat="45.40048" lon="5.80012">
        <ele>1138.199951172</ele>
        <time>2012-02-18T08:33:23Z</time>
      </trkpt>
      <trkpt lat="45.40053" lon="5.80029">
        <ele>1140.800048828</ele>
        <time>2012-02-18T08:33:35Z</time>
      </trkpt>
      <trkpt lat="45.40055" lon="5.8007">
        <ele>1147.599975586</ele>
        <time>2012-02-18T08:34:07Z</time>
      </trkpt>
      <trkpt lat="45.40051" lon="5.80091">
        <ele>1152.199951172</ele>
        <time>2012-02-18T08:34:25Z</time>
      </trkpt>
      <trkpt lat="45.40005" lon="5.80183">
        <ele>1177.400024414</ele>
        <time>2012-02-18T08:36:13Z</time>
      </trkpt>
      <trkpt lat="45.39992" lon="5.80191">
        <ele>1182.400024414</ele>
        <time>2012-02-18T08:37:08Z</time>
      </trkpt>
      <trkpt lat="45.39979" lon="5.80206">
        <ele>1188.400024414</ele>
        <time>2012-02-18T08:37:29Z</time>
      </trkpt>
      <trkpt lat="45.39914" lon="5.80228">
        <ele>1207</ele>
        <time>2012-02-18T08:38:48Z</time>
      </trkpt>
      <trkpt lat="45.39866" lon="5.80264">
        <ele>1220.400024414</ele>
        <time>2012-02-18T08:39:59Z</time>
      </trkpt>
      <trkpt lat="45.39843" lon="5.80275">
        <ele>1226.400024414</ele>
        <time>2012-02-18T08:40:33Z</time>
      </trkpt>
      <trkpt lat="45.39806" lon="5.80276">
        <ele>1235</ele>
        <time>2012-02-18T08:41:33Z</time>
      </trkpt>
      <trkpt lat="45.39787" lon="5.80271">
        <ele>1239.199951172</ele>
        <time>2012-02-18T08:42:02Z</time>
      </trkpt>
      <trkpt lat="45.39726" lon="5.80283">
        <ele>1251.800048828</ele>
        <time>2012-02-18T08:43:12Z</time>
      </trkpt>
      <trkpt lat="45.39696" lon="5.80298">
        <ele>1257</ele>
        <time>2012-02-18T08:43:41Z</time>
      </trkpt>
      <trkpt lat="45.39678" lon="5.80298">
        <ele>1259</ele>
        <time>2012-02-18T08:44:00Z</time>
      </trkpt>
      <trkpt lat="45.39635" lon="5.80312">
        <ele>1268</ele>
        <time>2012-02-18T08:44:53Z</time>
      </trkpt>
      <trkpt lat="45.39608" lon="5.80309">
        <ele>1272.400024414</ele>
        <time>2012-02-18T08:45:23Z</time>
      </trkpt>
      <trkpt lat="45.39592" lon="5.80317">
        <ele>1276</ele>
        <time>2012-02-18T08:45:46Z</time>
      </trkpt>
      <trkpt lat="45.39568" lon="5.80337">
        <ele>1283.400024414</ele>
        <time>2012-02-18T08:46:28Z</time>
      </trkpt>
      <trkpt lat="45.39542" lon="5.80346">
        <ele>1291.599975586</ele>
        <time>2012-02-18T08:47:10Z</time>
      </trkpt>
      <trkpt lat="45.39528" lon="5.80357">
        <ele>1297.199951172</ele>
        <time>2012-02-18T08:47:36Z</time>
      </trkpt>
      <trkpt lat="45.39505" lon="5.80359">
        <ele>1302.800048828</ele>
        <time>2012-02-18T08:48:14Z</time>
      </trkpt>
      <trkpt lat="45.395" lon="5.80356">
        <ele>1303.400024414</ele>
        <time>2012-02-18T08:48:18Z</time>
      </trkpt>
      <trkpt lat="45.39478" lon="5.80359">
        <ele>1310.800048828</ele>
        <time>2012-02-18T08:49:01Z</time>
      </trkpt>
      <trkpt lat="45.39432" lon="5.80353">
        <ele>1324</ele>
        <time>2012-02-18T08:50:24Z</time>
      </trkpt>
      <trkpt lat="45.39418" lon="5.80357">
        <ele>1329.199951172</ele>
        <time>2012-02-18T08:50:47Z</time>
      </trkpt>
      <trkpt lat="45.39385" lon="5.80339">
        <ele>1337.800048828</ele>
        <time>2012-02-18T08:51:49Z</time>
      </trkpt>
      <trkpt lat="45.39375" lon="5.80346">
        <ele>1343.199951172</ele>
        <time>2012-02-18T08:52:14Z</time>
      </trkpt>
      <trkpt lat="45.39367" lon="5.80346">
        <ele>1346</ele>
        <time>2012-02-18T08:52:29Z</time>
      </trkpt>
      <trkpt lat="45.39359" lon="5.80352">
        <ele>1351</ele>
        <time>2012-02-18T08:52:59Z</time>
      </trkpt>
      <trkpt lat="45.39358" lon="5.80365">
        <ele>1355.199951172</ele>
        <time>2012-02-18T08:53:17Z</time>
      </trkpt>
      <trkpt lat="45.39353" lon="5.8037">
        <ele>1358.400024414</ele>
        <time>2012-02-18T08:53:35Z</time>
      </trkpt>
      <trkpt lat="45.39356" lon="5.80369">
        <ele>1357.199951172</ele>
        <time>2012-02-18T08:53:40Z</time>
      </trkpt>
      <trkpt lat="45.39376" lon="5.80466">
        <ele>1378.400024414</ele>
        <time>2012-02-18T08:55:44Z</time>
      </trkpt>
      <trkpt lat="45.39405" lon="5.80546">
        <ele>1395.400024414</ele>
        <time>2012-02-18T08:57:18Z</time>
      </trkpt>
      <trkpt lat="45.39462" lon="5.80635">
        <ele>1422.199951172</ele>
        <time>2012-02-18T08:59:24Z</time>
      </trkpt>
      <trkpt lat="45.39477" lon="5.80649">
        <ele>1424.199951172</ele>
        <time>2012-02-18T08:59:51Z</time>
      </trkpt>
      <trkpt lat="45.39485" lon="5.80663">
        <ele>1429.199951172</ele>
        <time>2012-02-18T09:00:10Z</time>
      </trkpt>
      <trkpt lat="45.39492" lon="5.80664">
        <ele>1426.800048828</ele>
        <time>2012-02-18T09:00:22Z</time>
      </trkpt>
      <trkpt lat="45.39519" lon="5.80706">
        <ele>1438.400024414</ele>
        <time>2012-02-18T09:01:26Z</time>
      </trkpt>
      <trkpt lat="45.39517" lon="5.80718">
        <ele>1444</ele>
        <time>2012-02-18T09:01:37Z</time>
      </trkpt>
      <trkpt lat="45.39504" lon="5.80746">
        <ele>1457.400024414</ele>
        <time>2012-02-18T09:02:10Z</time>
      </trkpt>
      <trkpt lat="45.39498" lon="5.8079">
        <ele>1461.199951172</ele>
        <time>2012-02-18T09:02:45Z</time>
      </trkpt>
      <trkpt lat="45.395" lon="5.808">
        <ele>1461.400024414</ele>
        <time>2012-02-18T09:02:54Z</time>
      </trkpt>
      <trkpt lat="45.39494" lon="5.80818">
        <ele>1463.199951172</ele>
        <time>2012-02-18T09:03:10Z</time>
      </trkpt>
      <trkpt lat="45.39467" lon="5.80829">
        <ele>1467.400024414</ele>
        <time>2012-02-18T09:03:33Z</time>
      </trkpt>
      <trkpt lat="45.39448" lon="5.80851">
        <ele>1469.199951172</ele>
        <time>2012-02-18T09:03:55Z</time>
      </trkpt>
      <trkpt lat="45.39437" lon="5.80854">
        <ele>1470.599975586</ele>
        <time>2012-02-18T09:04:06Z</time>
      </trkpt>
      <trkpt lat="45.39416" lon="5.8088">
        <ele>1472.400024414</ele>
        <time>2012-02-18T09:04:33Z</time>
      </trkpt>
      <trkpt lat="45.39391" lon="5.80901">
        <ele>1477.400024414</ele>
        <time>2012-02-18T09:05:00Z</time>
      </trkpt>
      <trkpt lat="45.3935" lon="5.80914">
        <ele>1485.599975586</ele>
        <time>2012-02-18T09:05:47Z</time>
      </trkpt>
      <trkpt lat="45.39336" lon="5.80898">
        <ele>1489.800048828</ele>
        <time>2012-02-18T09:06:08Z</time>
      </trkpt>
      <trkpt lat="45.3932" lon="5.80845">
        <ele>1497.599975586</ele>
        <time>2012-02-18T09:07:03Z</time>
      </trkpt>
      <trkpt lat="45.39315" lon="5.80838">
        <ele>1499.599975586</ele>
        <time>2012-02-18T09:07:13Z</time>
      </trkpt>
      <trkpt lat="45.39287" lon="5.80827">
        <ele>1508.400024414</ele>
        <time>2012-02-18T09:07:49Z</time>
      </trkpt>
      <trkpt lat="45.39277" lon="5.80813">
        <ele>1514.199951172</ele>
        <time>2012-02-18T09:08:12Z</time>
      </trkpt>
      <trkpt lat="45.39251" lon="5.80807">
        <ele>1523.199951172</ele>
        <time>2012-02-18T09:08:55Z</time>
      </trkpt>
      <trkpt lat="45.39249" lon="5.80801">
        <ele>1525</ele>
        <time>2012-02-18T09:09:04Z</time>
      </trkpt>
      <trkpt lat="45.39239" lon="5.80797">
        <ele>1529.400024414</ele>
        <time>2012-02-18T09:09:22Z</time>
      </trkpt>
      <trkpt lat="45.39234" lon="5.80801">
        <ele>1530</ele>
        <time>2012-02-18T09:09:40Z</time>
      </trkpt>
      <trkpt lat="45.39225" lon="5.80796">
        <ele>1534.199951172</ele>
        <time>2012-02-18T09:09:57Z</time>
      </trkpt>
      <trkpt lat="45.39217" lon="5.80779">
        <ele>1539.800048828</ele>
        <time>2012-02-18T09:10:21Z</time>
      </trkpt>
      <trkpt lat="45.39212" lon="5.80779">
        <ele>1541.199951172</ele>
        <time>2012-02-18T09:10:30Z</time>
      </trkpt>
      <trkpt lat="45.39206" lon="5.8077">
        <ele>1544.400024414</ele>
        <time>2012-02-18T09:10:44Z</time>
      </trkpt>
      <trkpt lat="45.39207" lon="5.80764">
        <ele>1545.199951172</ele>
        <time>2012-02-18T09:10:57Z</time>
      </trkpt>
      <trkpt lat="45.39205" lon="5.80764">
        <ele>1545.800048828</ele>
        <time>2012-02-18T09:11:01Z</time>
      </trkpt>
      <trkpt lat="45.39205" lon="5.80746">
        <ele>1548.800048828</ele>
        <time>2012-02-18T09:11:32Z</time>
      </trkpt>
      <trkpt lat="45.39157" lon="5.80762">
        <ele>1560.400024414</ele>
        <time>2012-02-18T09:12:50Z</time>
      </trkpt>
      <trkpt lat="45.39145" lon="5.80759">
        <ele>1566.199951172</ele>
        <time>2012-02-18T09:13:06Z</time>
      </trkpt>
      <trkpt lat="45.39102" lon="5.80782">
        <ele>1579.400024414</ele>
        <time>2012-02-18T09:14:07Z</time>
      </trkpt>
      <trkpt lat="45.39085" lon="5.80776">
        <ele>1587.599975586</ele>
        <time>2012-02-18T09:14:34Z</time>
      </trkpt>
      <trkpt lat="45.39061" lon="5.80798">
        <ele>1587.199951172</ele>
        <time>2012-02-18T09:15:10Z</time>
      </trkpt>
      <trkpt lat="45.39059" lon="5.80791">
        <ele>1590.599975586</ele>
        <time>2012-02-18T09:15:19Z</time>
      </trkpt>
      <trkpt lat="45.3905" lon="5.80797">
        <ele>1591</ele>
        <time>2012-02-18T09:15:42Z</time>
      </trkpt>
      <trkpt lat="45.39047" lon="5.80781">
        <ele>1597.800048828</ele>
        <time>2012-02-18T09:16:07Z</time>
      </trkpt>
      <trkpt lat="45.38999" lon="5.80801">
        <ele>1605</ele>
        <time>2012-02-18T09:17:17Z</time>
      </trkpt>
      <trkpt lat="45.38989" lon="5.80793">
        <ele>1612</ele>
        <time>2012-02-18T09:17:36Z</time>
      </trkpt>
      <trkpt lat="45.38976" lon="5.80801">
        <ele>1613.800048828</ele>
        <time>2012-02-18T09:17:56Z</time>
      </trkpt>
      <trkpt lat="45.38954" lon="5.80808">
        <ele>1621</ele>
        <time>2012-02-18T09:18:28Z</time>
      </trkpt>
      <trkpt lat="45.38956" lon="5.80799">
        <ele>1623</ele>
        <time>2012-02-18T09:18:38Z</time>
      </trkpt>
      <trkpt lat="45.38923" lon="5.80803">
        <ele>1634.800048828</ele>
        <time>2012-02-18T09:19:35Z</time>
      </trkpt>
      <trkpt lat="45.38924" lon="5.80781">
        <ele>1640.599975586</ele>
        <time>2012-02-18T09:20:03Z</time>
      </trkpt>
      <trkpt lat="45.38897" lon="5.80783">
        <ele>1649.800048828</ele>
        <time>2012-02-18T09:20:52Z</time>
      </trkpt>
      <trkpt lat="45.38883" lon="5.80797">
        <ele>1651.400024414</ele>
        <time>2012-02-18T09:21:16Z</time>
      </trkpt>
      <trkpt lat="45.38882" lon="5.80866">
        <ele>1642.599975586</ele>
        <time>2012-02-18T09:21:37Z</time>
      </trkpt>
      <trkpt lat="45.38871" lon="5.80878">
        <ele>1647</ele>
        <time>2012-02-18T09:21:58Z</time>
      </trkpt>
      <trkpt lat="45.38839" lon="5.80881">
        <ele>1659</ele>
        <time>2012-02-18T09:23:01Z</time>
      </trkpt>
      <trkpt lat="45.3883" lon="5.8089">
        <ele>1662.400024414</ele>
        <time>2012-02-18T09:23:28Z</time>
      </trkpt>
      <trkpt lat="45.3883" lon="5.80895">
        <ele>1662.400024414</ele>
        <time>2012-02-18T09:23:43Z</time>
      </trkpt>
      <trkpt lat="45.38806" lon="5.80889">
        <ele>1673.800048828</ele>
        <time>2012-02-18T09:24:45Z</time>
      </trkpt>
      <trkpt lat="45.38794" lon="5.80881">
        <ele>1679.800048828</ele>
        <time>2012-02-18T09:25:17Z</time>
      </trkpt>
      <trkpt lat="45.38784" lon="5.80861">
        <ele>1685.199951172</ele>
        <time>2012-02-18T09:26:00Z</time>
      </trkpt>
      <trkpt lat="45.38765" lon="5.80874">
        <ele>1694</ele>
        <time>2012-02-18T09:26:45Z</time>
      </trkpt>
      <trkpt lat="45.38764" lon="5.80861">
        <ele>1695</ele>
        <time>2012-02-18T09:27:06Z</time>
      </trkpt>
      <trkpt lat="45.38758" lon="5.80851">
        <ele>1698.599975586</ele>
        <time>2012-02-18T09:27:24Z</time>
      </trkpt>
      <trkpt lat="45.38751" lon="5.8085">
        <ele>1702.400024414</ele>
        <time>2012-02-18T09:27:37Z</time>
      </trkpt>
      <trkpt lat="45.38729" lon="5.80868">
        <ele>1700.199951172</ele>
        <time>2012-02-18T09:28:24Z</time>
      </trkpt>
      <trkpt lat="45.3873" lon="5.8086">
        <ele>1700.599975586</ele>
        <time>2012-02-18T09:28:54Z</time>
      </trkpt>
      <trkpt lat="45.3871" lon="5.80871">
        <ele>1699</ele>
        <time>2012-02-18T09:29:23Z</time>
      </trkpt>
      <trkpt lat="45.38713" lon="5.80866">
        <ele>1699.199951172</ele>
        <time>2012-02-18T09:30:02Z</time>
      </trkpt>
      <trkpt lat="45.38717" lon="5.80868">
        <ele>1699.599975586</ele>
        <time>2012-02-18T09:30:51Z</time>
      </trkpt>
      <trkpt lat="45.38713" lon="5.80863">
        <ele>1699.400024414</ele>
        <time>2012-02-18T09:31:37Z</time>
      </trkpt>
      <trkpt lat="45.38716" lon="5.80864">
        <ele>1699.599975586</ele>
        <time>2012-02-18T09:32:37Z</time>
      </trkpt>
      <trkpt lat="45.38703" lon="5.80926">
        <ele>1700.599975586</ele>
        <time>2012-02-18T09:34:00Z</time>
      </trkpt>
      <trkpt lat="45.38664" lon="5.81013">
        <ele>1723.199951172</ele>
        <time>2012-02-18T09:35:57Z</time>
      </trkpt>
      <trkpt lat="45.38632" lon="5.81061">
        <ele>1732.400024414</ele>
        <time>2012-02-18T09:37:06Z</time>
      </trkpt>
      <trkpt lat="45.3863" lon="5.81068">
        <ele>1733.400024414</ele>
        <time>2012-02-18T09:37:53Z</time>
      </trkpt>
      <trkpt lat="45.38658" lon="5.81066">
        <ele>1734</ele>
        <time>2012-02-18T09:38:36Z</time>
      </trkpt>
      <trkpt lat="45.3869" lon="5.81047">
        <ele>1732.199951172</ele>
        <time>2012-02-18T09:39:42Z</time>
      </trkpt>
      <trkpt lat="45.38722" lon="5.81044">
        <ele>1734.599975586</ele>
        <time>2012-02-18T09:40:20Z</time>
      </trkpt>
      <trkpt lat="45.38753" lon="5.81055">
        <ele>1738</ele>
        <time>2012-02-18T09:42:34Z</time>
      </trkpt>
      <trkpt lat="45.38749" lon="5.81055">
        <ele>1738.599975586</ele>
        <time>2012-02-18T09:48:50Z</time>
      </trkpt>
      <trkpt lat="45.38753" lon="5.81056">
        <ele>1738.199951172</ele>
        <time>2012-02-18T09:49:36Z</time>
      </trkpt>
      <trkpt lat="45.38746" lon="5.81062">
        <ele>1739.199951172</ele>
        <time>2012-02-18T09:49:39Z</time>
      </trkpt>
      <trkpt lat="45.38741" lon="5.81078">
        <ele>1741</ele>
        <time>2012-02-18T09:49:42Z</time>
      </trkpt>
      <trkpt lat="45.38737" lon="5.81114">
        <ele>1734.800048828</ele>
        <time>2012-02-18T09:49:48Z</time>
      </trkpt>
      <trkpt lat="45.38739" lon="5.81145">
        <ele>1728</ele>
        <time>2012-02-18T09:49:53Z</time>
      </trkpt>
      <trkpt lat="45.38736" lon="5.81166">
        <ele>1723.199951172</ele>
        <time>2012-02-18T09:49:58Z</time>
      </trkpt>
      <trkpt lat="45.38733" lon="5.8117">
        <ele>1722.199951172</ele>
        <time>2012-02-18T09:50:57Z</time>
      </trkpt>
      <trkpt lat="45.38732" lon="5.81184">
        <ele>1719.400024414</ele>
        <time>2012-02-18T09:51:10Z</time>
      </trkpt>
      <trkpt lat="45.3874" lon="5.81206">
        <ele>1715.599975586</ele>
        <time>2012-02-18T09:51:14Z</time>
      </trkpt>
      <trkpt lat="45.38729" lon="5.81231">
        <ele>1710</ele>
        <time>2012-02-18T09:51:18Z</time>
      </trkpt>
      <trkpt lat="45.38726" lon="5.81251">
        <ele>1705.800048828</ele>
        <time>2012-02-18T09:51:21Z</time>
      </trkpt>
      <trkpt lat="45.38743" lon="5.8129">
        <ele>1697</ele>
        <time>2012-02-18T09:51:55Z</time>
      </trkpt>
      <trkpt lat="45.38748" lon="5.81361">
        <ele>1676.599975586</ele>
        <time>2012-02-18T09:52:09Z</time>
      </trkpt>
      <trkpt lat="45.38756" lon="5.81382">
        <ele>1668.599975586</ele>
        <time>2012-02-18T09:52:14Z</time>
      </trkpt>
      <trkpt lat="45.38783" lon="5.81402">
        <ele>1661.199951172</ele>
        <time>2012-02-18T09:52:19Z</time>
      </trkpt>
      <trkpt lat="45.38786" lon="5.81416">
        <ele>1656.199951172</ele>
        <time>2012-02-18T09:52:24Z</time>
      </trkpt>
      <trkpt lat="45.38779" lon="5.81411">
        <ele>1657.800048828</ele>
        <time>2012-02-18T09:53:30Z</time>
      </trkpt>
      <trkpt lat="45.38776" lon="5.81419">
        <ele>1655.400024414</ele>
        <time>2012-02-18T09:53:38Z</time>
      </trkpt>
      <trkpt lat="45.38798" lon="5.81462">
        <ele>1640.800048828</ele>
        <time>2012-02-18T09:53:46Z</time>
      </trkpt>
      <trkpt lat="45.38797" lon="5.81483">
        <ele>1634</ele>
        <time>2012-02-18T09:53:50Z</time>
      </trkpt>
      <trkpt lat="45.38801" lon="5.81496">
        <ele>1629.599975586</ele>
        <time>2012-02-18T09:53:53Z</time>
      </trkpt>
      <trkpt lat="45.38809" lon="5.81501">
        <ele>1627.599975586</ele>
        <time>2012-02-18T09:53:56Z</time>
      </trkpt>
      <trkpt lat="45.38816" lon="5.81516">
        <ele>1623.199951172</ele>
        <time>2012-02-18T09:53:59Z</time>
      </trkpt>
      <trkpt lat="45.38823" lon="5.8152">
        <ele>1622</ele>
        <time>2012-02-18T09:54:00Z</time>
      </trkpt>
      <trkpt lat="45.38826" lon="5.8153">
        <ele>1619</ele>
        <time>2012-02-18T09:54:02Z</time>
      </trkpt>
      <trkpt lat="45.38824" lon="5.81553">
        <ele>1612.800048828</ele>
        <time>2012-02-18T09:54:05Z</time>
      </trkpt>
      <trkpt lat="45.38821" lon="5.8155">
        <ele>1613.599975586</ele>
        <time>2012-02-18T09:54:08Z</time>
      </trkpt>
      <trkpt lat="45.38832" lon="5.81552">
        <ele>1612.599975586</ele>
        <time>2012-02-18T09:54:24Z</time>
      </trkpt>
      <trkpt lat="45.3883" lon="5.81599">
        <ele>1601.400024414</ele>
        <time>2012-02-18T09:54:43Z</time>
      </trkpt>
      <trkpt lat="45.38834" lon="5.81605">
        <ele>1600</ele>
        <time>2012-02-18T09:55:03Z</time>
      </trkpt>
      <trkpt lat="45.38827" lon="5.81606">
        <ele>1600.400024414</ele>
        <time>2012-02-18T09:56:05Z</time>
      </trkpt>
      <trkpt lat="45.38828" lon="5.81599">
        <ele>1601.599975586</ele>
        <time>2012-02-18T09:56:30Z</time>
      </trkpt>
      <trkpt lat="45.38827" lon="5.81604">
        <ele>1600.599975586</ele>
        <time>2012-02-18T09:57:04Z</time>
      </trkpt>
      <trkpt lat="45.38832" lon="5.81607">
        <ele>1599.800048828</ele>
        <time>2012-02-18T09:57:15Z</time>
      </trkpt>
      <trkpt lat="45.38835" lon="5.8162">
        <ele>1597.199951172</ele>
        <time>2012-02-18T09:57:19Z</time>
      </trkpt>
      <trkpt lat="45.38832" lon="5.81643">
        <ele>1593.400024414</ele>
        <time>2012-02-18T09:57:37Z</time>
      </trkpt>
      <trkpt lat="45.3884" lon="5.81645">
        <ele>1592.599975586</ele>
        <time>2012-02-18T09:58:15Z</time>
      </trkpt>
      <trkpt lat="45.38836" lon="5.81648">
        <ele>1592.199951172</ele>
        <time>2012-02-18T09:58:48Z</time>
      </trkpt>
      <trkpt lat="45.38856" lon="5.81673">
        <ele>1587.199951172</ele>
        <time>2012-02-18T09:59:00Z</time>
      </trkpt>
      <trkpt lat="45.38858" lon="5.81683">
        <ele>1586.800048828</ele>
        <time>2012-02-18T09:59:09Z</time>
      </trkpt>
      <trkpt lat="45.38825" lon="5.81714">
        <ele>1589.800048828</ele>
        <time>2012-02-18T10:00:59Z</time>
      </trkpt>
      <trkpt lat="45.38811" lon="5.81712">
        <ele>1592.199951172</ele>
        <time>2012-02-18T10:01:05Z</time>
      </trkpt>
      <trkpt lat="45.38807" lon="5.81726">
        <ele>1593.800048828</ele>
        <time>2012-02-18T10:02:26Z</time>
      </trkpt>
      <trkpt lat="45.38806" lon="5.81717">
        <ele>1593.599975586</ele>
        <time>2012-02-18T10:03:44Z</time>
      </trkpt>
      <trkpt lat="45.38809" lon="5.81724">
        <ele>1593.400024414</ele>
        <time>2012-02-18T10:03:51Z</time>
      </trkpt>
      <trkpt lat="45.38806" lon="5.81718">
        <ele>1593.400024414</ele>
        <time>2012-02-18T10:05:02Z</time>
      </trkpt>
      <trkpt lat="45.38806" lon="5.81721">
        <ele>1593.800048828</ele>
        <time>2012-02-18T10:06:23Z</time>
      </trkpt>
      <trkpt lat="45.38807" lon="5.81716">
        <ele>1593.199951172</ele>
        <time>2012-02-18T10:07:53Z</time>
      </trkpt>
      <trkpt lat="45.38802" lon="5.81716">
        <ele>1594</ele>
        <time>2012-02-18T10:09:27Z</time>
      </trkpt>
      <trkpt lat="45.38799" lon="5.81707">
        <ele>1594</ele>
        <time>2012-02-18T10:10:07Z</time>
      </trkpt>
      <trkpt lat="45.38758" lon="5.81687">
        <ele>1596.599975586</ele>
        <time>2012-02-18T10:11:01Z</time>
      </trkpt>
      <trkpt lat="45.38738" lon="5.81656">
        <ele>1597</ele>
        <time>2012-02-18T10:11:31Z</time>
      </trkpt>
      <trkpt lat="45.38723" lon="5.81642">
        <ele>1601</ele>
        <time>2012-02-18T10:11:52Z</time>
      </trkpt>
      <trkpt lat="45.38655" lon="5.81598">
        <ele>1606.800048828</ele>
        <time>2012-02-18T10:13:23Z</time>
      </trkpt>
      <trkpt lat="45.38628" lon="5.81596">
        <ele>1611.199951172</ele>
        <time>2012-02-18T10:14:01Z</time>
      </trkpt>
      <trkpt lat="45.38612" lon="5.81604">
        <ele>1614.800048828</ele>
        <time>2012-02-18T10:14:27Z</time>
      </trkpt>
      <trkpt lat="45.38608" lon="5.81615">
        <ele>1617</ele>
        <time>2012-02-18T10:14:53Z</time>
      </trkpt>
      <trkpt lat="45.38611" lon="5.81644">
        <ele>1620.400024414</ele>
        <time>2012-02-18T10:15:39Z</time>
      </trkpt>
      <trkpt lat="45.38603" lon="5.81645">
        <ele>1622.400024414</ele>
        <time>2012-02-18T10:16:04Z</time>
      </trkpt>
      <trkpt lat="45.38607" lon="5.81661">
        <ele>1623.800048828</ele>
        <time>2012-02-18T10:16:39Z</time>
      </trkpt>
      <trkpt lat="45.38564" lon="5.81682">
        <ele>1647.400024414</ele>
        <time>2012-02-18T10:18:39Z</time>
      </trkpt>
      <trkpt lat="45.38572" lon="5.81689">
        <ele>1646.599975586</ele>
        <time>2012-02-18T10:19:19Z</time>
      </trkpt>
      <trkpt lat="45.38565" lon="5.81693">
        <ele>1651.599975586</ele>
        <time>2012-02-18T10:19:52Z</time>
      </trkpt>
      <trkpt lat="45.38579" lon="5.81698">
        <ele>1647.199951172</ele>
        <time>2012-02-18T10:20:32Z</time>
      </trkpt>
      <trkpt lat="45.38571" lon="5.81703">
        <ele>1653.400024414</ele>
        <time>2012-02-18T10:21:17Z</time>
      </trkpt>
      <trkpt lat="45.38582" lon="5.81709">
        <ele>1650.800048828</ele>
        <time>2012-02-18T10:21:44Z</time>
      </trkpt>
      <trkpt lat="45.38595" lon="5.81726">
        <ele>1654.599975586</ele>
        <time>2012-02-18T10:22:26Z</time>
      </trkpt>
      <trkpt lat="45.38581" lon="5.81736">
        <ele>1663.599975586</ele>
        <time>2012-02-18T10:23:26Z</time>
      </trkpt>
      <trkpt lat="45.38575" lon="5.8173">
        <ele>1664</ele>
        <time>2012-02-18T10:23:53Z</time>
      </trkpt>
      <trkpt lat="45.38606" lon="5.8176">
        <ele>1668</ele>
        <time>2012-02-18T10:25:39Z</time>
      </trkpt>
      <trkpt lat="45.38593" lon="5.8177">
        <ele>1677.800048828</ele>
        <time>2012-02-18T10:27:14Z</time>
      </trkpt>
      <trkpt lat="45.38602" lon="5.81771">
        <ele>1675.599975586</ele>
        <time>2012-02-18T10:27:54Z</time>
      </trkpt>
      <trkpt lat="45.38598" lon="5.81776">
        <ele>1680.400024414</ele>
        <time>2012-02-18T10:28:37Z</time>
      </trkpt>
      <trkpt lat="45.38601" lon="5.81773">
        <ele>1677.599975586</ele>
        <time>2012-02-18T10:28:52Z</time>
      </trkpt>
      <trkpt lat="45.38609" lon="5.81777">
        <ele>1677.599975586</ele>
        <time>2012-02-18T10:29:43Z</time>
      </trkpt>
      <trkpt lat="45.38606" lon="5.81783">
        <ele>1681.800048828</ele>
        <time>2012-02-18T10:30:33Z</time>
      </trkpt>
      <trkpt lat="45.38615" lon="5.81786">
        <ele>1680.599975586</ele>
        <time>2012-02-18T10:31:10Z</time>
      </trkpt>
      <trkpt lat="45.3861" lon="5.81794">
        <ele>1687.199951172</ele>
        <time>2012-02-18T10:31:39Z</time>
      </trkpt>
      <trkpt lat="45.38621" lon="5.81798">
        <ele>1686</ele>
        <time>2012-02-18T10:32:23Z</time>
      </trkpt>
      <trkpt lat="45.38612" lon="5.81804">
        <ele>1692.400024414</ele>
        <time>2012-02-18T10:33:05Z</time>
      </trkpt>
      <trkpt lat="45.38624" lon="5.81808">
        <ele>1690.599975586</ele>
        <time>2012-02-18T10:34:02Z</time>
      </trkpt>
      <trkpt lat="45.38618" lon="5.81821">
        <ele>1700.599975586</ele>
        <time>2012-02-18T10:34:54Z</time>
      </trkpt>
      <trkpt lat="45.3863" lon="5.8182">
        <ele>1696</ele>
        <time>2012-02-18T10:35:51Z</time>
      </trkpt>
      <trkpt lat="45.38638" lon="5.81832">
        <ele>1700.599975586</ele>
        <time>2012-02-18T10:36:29Z</time>
      </trkpt>
      <trkpt lat="45.38624" lon="5.8184">
        <ele>1709.199951172</ele>
        <time>2012-02-18T10:37:11Z</time>
      </trkpt>
      <trkpt lat="45.38635" lon="5.81847">
        <ele>1709.199951172</ele>
        <time>2012-02-18T10:38:36Z</time>
      </trkpt>
      <trkpt lat="45.3862" lon="5.81855">
        <ele>1717</ele>
        <time>2012-02-18T10:39:48Z</time>
      </trkpt>
      <trkpt lat="45.38645" lon="5.81874">
        <ele>1720.599975586</ele>
        <time>2012-02-18T10:41:34Z</time>
      </trkpt>
      <trkpt lat="45.38636" lon="5.8188">
        <ele>1725.400024414</ele>
        <time>2012-02-18T10:42:24Z</time>
      </trkpt>
      <trkpt lat="45.38649" lon="5.81888">
        <ele>1727.199951172</ele>
        <time>2012-02-18T10:43:31Z</time>
      </trkpt>
      <trkpt lat="45.38645" lon="5.81893">
        <ele>1730.400024414</ele>
        <time>2012-02-18T10:44:00Z</time>
      </trkpt>
      <trkpt lat="45.38647" lon="5.81894">
        <ele>1731</ele>
        <time>2012-02-18T10:44:28Z</time>
      </trkpt>
      <trkpt lat="45.38645" lon="5.81893">
        <ele>1730.800048828</ele>
        <time>2012-02-18T10:44:34Z</time>
      </trkpt>
      <trkpt lat="45.3865" lon="5.81894">
        <ele>1730</ele>
        <time>2012-02-18T10:45:25Z</time>
      </trkpt>
      <trkpt lat="45.38657" lon="5.81912">
        <ele>1739</ele>
        <time>2012-02-18T10:46:22Z</time>
      </trkpt>
      <trkpt lat="45.38659" lon="5.81911">
        <ele>1738.400024414</ele>
        <time>2012-02-18T10:46:32Z</time>
      </trkpt>
      <trkpt lat="45.38658" lon="5.81918">
        <ele>1741.400024414</ele>
        <time>2012-02-18T10:46:57Z</time>
      </trkpt>
      <trkpt lat="45.38659" lon="5.81912">
        <ele>1738.800048828</ele>
        <time>2012-02-18T10:48:02Z</time>
      </trkpt>
      <trkpt lat="45.3866" lon="5.81918">
        <ele>1741.400024414</ele>
        <time>2012-02-18T10:50:00Z</time>
      </trkpt>
      <trkpt lat="45.38662" lon="5.81914">
        <ele>1739.800048828</ele>
        <time>2012-02-18T10:50:36Z</time>
      </trkpt>
      <trkpt lat="45.38657" lon="5.81919">
        <ele>1741.599975586</ele>
        <time>2012-02-18T10:52:07Z</time>
      </trkpt>
      <trkpt lat="45.3866" lon="5.81914">
        <ele>1740.400024414</ele>
        <time>2012-02-18T10:53:31Z</time>
      </trkpt>
      <trkpt lat="45.38657" lon="5.81915">
        <ele>1741.199951172</ele>
        <time>2012-02-18T10:54:47Z</time>
      </trkpt>
      <trkpt lat="45.3866" lon="5.81913">
        <ele>1739.400024414</ele>
        <time>2012-02-18T10:56:06Z</time>
      </trkpt>
      <trkpt lat="45.38658" lon="5.81917">
        <ele>1741.800048828</ele>
        <time>2012-02-18T10:56:41Z</time>
      </trkpt>
      <trkpt lat="45.38641" lon="5.81914">
        <ele>1742.400024414</ele>
        <time>2012-02-18T10:58:08Z</time>
      </trkpt>
      <trkpt lat="45.38639" lon="5.81926">
        <ele>1741.599975586</ele>
        <time>2012-02-18T10:59:13Z</time>
      </trkpt>
      <trkpt lat="45.38631" lon="5.81923">
        <ele>1742.800048828</ele>
        <time>2012-02-18T10:59:49Z</time>
      </trkpt>
      <trkpt lat="45.38634" lon="5.81923">
        <ele>1742.599975586</ele>
        <time>2012-02-18T10:59:54Z</time>
      </trkpt>
      <trkpt lat="45.3862" lon="5.8192">
        <ele>1744.400024414</ele>
        <time>2012-02-18T11:02:19Z</time>
      </trkpt>
      <trkpt lat="45.38622" lon="5.81924">
        <ele>1743</ele>
        <time>2012-02-18T11:04:57Z</time>
      </trkpt>
      <trkpt lat="45.38619" lon="5.81926">
        <ele>1742.800048828</ele>
        <time>2012-02-18T11:11:43Z</time>
      </trkpt>
      <trkpt lat="45.38623" lon="5.81924">
        <ele>1743.199951172</ele>
        <time>2012-02-18T11:15:34Z</time>
      </trkpt>
      <trkpt lat="45.3862" lon="5.81926">
        <ele>1742.599975586</ele>
        <time>2012-02-18T11:16:53Z</time>
      </trkpt>
      <trkpt lat="45.38622" lon="5.81922">
        <ele>1743.800048828</ele>
        <time>2012-02-18T11:19:58Z</time>
      </trkpt>
      <trkpt lat="45.38618" lon="5.81928">
        <ele>1742.199951172</ele>
        <time>2012-02-18T11:25:10Z</time>
      </trkpt>
      <trkpt lat="45.38623" lon="5.81925">
        <ele>1743</ele>
        <time>2012-02-18T11:30:27Z</time>
      </trkpt>
      <trkpt lat="45.38612" lon="5.81927">
        <ele>1743.199951172</ele>
        <time>2012-02-18T11:30:57Z</time>
      </trkpt>
      <trkpt lat="45.38612" lon="5.81921">
        <ele>1745</ele>
        <time>2012-02-18T11:31:09Z</time>
      </trkpt>
      <trkpt lat="45.38606" lon="5.81919">
        <ele>1746</ele>
        <time>2012-02-18T11:31:54Z</time>
      </trkpt>
      <trkpt lat="45.38615" lon="5.81902">
        <ele>1739.400024414</ele>
        <time>2012-02-18T11:32:21Z</time>
      </trkpt>
      <trkpt lat="45.38611" lon="5.81906">
        <ele>1741.599975586</ele>
        <time>2012-02-18T11:33:05Z</time>
      </trkpt>
      <trkpt lat="45.38614" lon="5.81906">
        <ele>1741.400024414</ele>
        <time>2012-02-18T11:33:19Z</time>
      </trkpt>
      <trkpt lat="45.38597" lon="5.81897">
        <ele>1739.800048828</ele>
        <time>2012-02-18T11:33:28Z</time>
      </trkpt>
      <trkpt lat="45.38593" lon="5.81876">
        <ele>1732.400024414</ele>
        <time>2012-02-18T11:33:36Z</time>
      </trkpt>
      <trkpt lat="45.38601" lon="5.81861">
        <ele>1724.599975586</ele>
        <time>2012-02-18T11:33:40Z</time>
      </trkpt>
      <trkpt lat="45.386" lon="5.81854">
        <ele>1722</ele>
        <time>2012-02-18T11:33:42Z</time>
      </trkpt>
      <trkpt lat="45.38596" lon="5.81861">
        <ele>1726</ele>
        <time>2012-02-18T11:33:54Z</time>
      </trkpt>
      <trkpt lat="45.38592" lon="5.81847">
        <ele>1721.400024414</ele>
        <time>2012-02-18T11:34:15Z</time>
      </trkpt>
      <trkpt lat="45.38602" lon="5.81841">
        <ele>1716</ele>
        <time>2012-02-18T11:34:21Z</time>
      </trkpt>
      <trkpt lat="45.38595" lon="5.81837">
        <ele>1716.800048828</ele>
        <time>2012-02-18T11:34:31Z</time>
      </trkpt>
      <trkpt lat="45.38598" lon="5.81816">
        <ele>1703.800048828</ele>
        <time>2012-02-18T11:34:41Z</time>
      </trkpt>
      <trkpt lat="45.3862" lon="5.81808">
        <ele>1692.199951172</ele>
        <time>2012-02-18T11:35:01Z</time>
      </trkpt>
      <trkpt lat="45.3862" lon="5.81788">
        <ele>1680.400024414</ele>
        <time>2012-02-18T11:35:17Z</time>
      </trkpt>
      <trkpt lat="45.38617" lon="5.81792">
        <ele>1684</ele>
        <time>2012-02-18T11:35:40Z</time>
      </trkpt>
      <trkpt lat="45.3861" lon="5.81774">
        <ele>1675.400024414</ele>
        <time>2012-02-18T11:35:55Z</time>
      </trkpt>
      <trkpt lat="45.38588" lon="5.81766">
        <ele>1677.199951172</ele>
        <time>2012-02-18T11:36:25Z</time>
      </trkpt>
      <trkpt lat="45.3859" lon="5.81751">
        <ele>1667.800048828</ele>
        <time>2012-02-18T11:36:29Z</time>
      </trkpt>
      <trkpt lat="45.38585" lon="5.8174">
        <ele>1664.199951172</ele>
        <time>2012-02-18T11:36:33Z</time>
      </trkpt>
      <trkpt lat="45.38588" lon="5.81738">
        <ele>1662</ele>
        <time>2012-02-18T11:36:34Z</time>
      </trkpt>
      <trkpt lat="45.38574" lon="5.81696">
        <ele>1649</ele>
        <time>2012-02-18T11:36:46Z</time>
      </trkpt>
      <trkpt lat="45.38572" lon="5.81704">
        <ele>1653.199951172</ele>
        <time>2012-02-18T11:36:55Z</time>
      </trkpt>
      <trkpt lat="45.38572" lon="5.8169">
        <ele>1647.199951172</ele>
        <time>2012-02-18T11:36:57Z</time>
      </trkpt>
      <trkpt lat="45.38597" lon="5.81612">
        <ele>1618.800048828</ele>
        <time>2012-02-18T11:37:04Z</time>
      </trkpt>
      <trkpt lat="45.3861" lon="5.81555">
        <ele>1618.199951172</ele>
        <time>2012-02-18T11:37:11Z</time>
      </trkpt>
      <trkpt lat="45.38609" lon="5.81562">
        <ele>1616.800048828</ele>
        <time>2012-02-18T11:37:42Z</time>
      </trkpt>
      <trkpt lat="45.38611" lon="5.81561">
        <ele>1616.599975586</ele>
        <time>2012-02-18T11:38:21Z</time>
      </trkpt>
      <trkpt lat="45.38609" lon="5.81562">
        <ele>1616.800048828</ele>
        <time>2012-02-18T11:39:18Z</time>
      </trkpt>
      <trkpt lat="45.38612" lon="5.8156">
        <ele>1616.800048828</ele>
        <time>2012-02-18T11:40:38Z</time>
      </trkpt>
      <trkpt lat="45.3861" lon="5.81564">
        <ele>1616.400024414</ele>
        <time>2012-02-18T11:42:28Z</time>
      </trkpt>
      <trkpt lat="45.38611" lon="5.81559">
        <ele>1617.199951172</ele>
        <time>2012-02-18T11:43:03Z</time>
      </trkpt>
      <trkpt lat="45.3861" lon="5.81565">
        <ele>1616</ele>
        <time>2012-02-18T11:44:24Z</time>
      </trkpt>
      <trkpt lat="45.38588" lon="5.81548">
        <ele>1621.800048828</ele>
        <time>2012-02-18T11:45:55Z</time>
      </trkpt>
      <trkpt lat="45.38583" lon="5.81549">
        <ele>1622.400024414</ele>
        <time>2012-02-18T11:46:01Z</time>
      </trkpt>
      <trkpt lat="45.38548" lon="5.8151">
        <ele>1636.400024414</ele>
        <time>2012-02-18T11:47:26Z</time>
      </trkpt>
      <trkpt lat="45.38535" lon="5.81507">
        <ele>1639</ele>
        <time>2012-02-18T11:47:53Z</time>
      </trkpt>
      <trkpt lat="45.38533" lon="5.81487">
        <ele>1641.599975586</ele>
        <time>2012-02-18T11:48:21Z</time>
      </trkpt>
      <trkpt lat="45.38527" lon="5.8148">
        <ele>1643.599975586</ele>
        <time>2012-02-18T11:48:35Z</time>
      </trkpt>
      <trkpt lat="45.38505" lon="5.81489">
        <ele>1645.400024414</ele>
        <time>2012-02-18T11:49:34Z</time>
      </trkpt>
      <trkpt lat="45.3846" lon="5.81445">
        <ele>1655</ele>
        <time>2012-02-18T11:50:42Z</time>
      </trkpt>
      <trkpt lat="45.38438" lon="5.81438">
        <ele>1656.199951172</ele>
        <time>2012-02-18T11:51:26Z</time>
      </trkpt>
      <trkpt lat="45.38401" lon="5.81439">
        <ele>1661.800048828</ele>
        <time>2012-02-18T11:52:35Z</time>
      </trkpt>
      <trkpt lat="45.38404" lon="5.81451">
        <ele>1665</ele>
        <time>2012-02-18T11:52:52Z</time>
      </trkpt>
      <trkpt lat="45.3839" lon="5.815">
        <ele>1685.800048828</ele>
        <time>2012-02-18T11:53:47Z</time>
      </trkpt>
      <trkpt lat="45.38395" lon="5.81528">
        <ele>1690.599975586</ele>
        <time>2012-02-18T11:54:23Z</time>
      </trkpt>
      <trkpt lat="45.38364" lon="5.81533">
        <ele>1701.199951172</ele>
        <time>2012-02-18T11:55:43Z</time>
      </trkpt>
      <trkpt lat="45.38387" lon="5.81564">
        <ele>1701.199951172</ele>
        <time>2012-02-18T11:57:05Z</time>
      </trkpt>
      <trkpt lat="45.38381" lon="5.8157">
        <ele>1704.400024414</ele>
        <time>2012-02-18T11:57:37Z</time>
      </trkpt>
      <trkpt lat="45.38391" lon="5.81574">
        <ele>1702.400024414</ele>
        <time>2012-02-18T11:58:08Z</time>
      </trkpt>
      <trkpt lat="45.38388" lon="5.81584">
        <ele>1705.400024414</ele>
        <time>2012-02-18T11:58:26Z</time>
      </trkpt>
      <trkpt lat="45.38391" lon="5.81602">
        <ele>1710.599975586</ele>
        <time>2012-02-18T11:58:49Z</time>
      </trkpt>
      <trkpt lat="45.38378" lon="5.81603">
        <ele>1715.599975586</ele>
        <time>2012-02-18T11:59:21Z</time>
      </trkpt>
      <trkpt lat="45.38373" lon="5.81617">
        <ele>1722.599975586</ele>
        <time>2012-02-18T11:59:42Z</time>
      </trkpt>
      <trkpt lat="45.38367" lon="5.81615">
        <ele>1723.800048828</ele>
        <time>2012-02-18T11:59:56Z</time>
      </trkpt>
      <trkpt lat="45.38366" lon="5.81628">
        <ele>1729.199951172</ele>
        <time>2012-02-18T12:00:20Z</time>
      </trkpt>
      <trkpt lat="45.38372" lon="5.8165">
        <ele>1735.599975586</ele>
        <time>2012-02-18T12:00:50Z</time>
      </trkpt>
      <trkpt lat="45.38349" lon="5.81639">
        <ele>1740.199951172</ele>
        <time>2012-02-18T12:01:34Z</time>
      </trkpt>
      <trkpt lat="45.38335" lon="5.8162">
        <ele>1737.199951172</ele>
        <time>2012-02-18T12:02:04Z</time>
      </trkpt>
      <trkpt lat="45.38327" lon="5.81615">
        <ele>1739</ele>
        <time>2012-02-18T12:02:19Z</time>
      </trkpt>
      <trkpt lat="45.3833" lon="5.81643">
        <ele>1749.599975586</ele>
        <time>2012-02-18T12:03:14Z</time>
      </trkpt>
      <trkpt lat="45.38309" lon="5.81623">
        <ele>1751.199951172</ele>
        <time>2012-02-18T12:04:04Z</time>
      </trkpt>
      <trkpt lat="45.38311" lon="5.81641">
        <ele>1757</ele>
        <time>2012-02-18T12:04:41Z</time>
      </trkpt>
      <trkpt lat="45.38293" lon="5.81629">
        <ele>1760.599975586</ele>
        <time>2012-02-18T12:05:36Z</time>
      </trkpt>
      <trkpt lat="45.38273" lon="5.81603">
        <ele>1762</ele>
        <time>2012-02-18T12:06:35Z</time>
      </trkpt>
      <trkpt lat="45.38164" lon="5.81554">
        <ele>1752.599975586</ele>
        <time>2012-02-18T12:10:44Z</time>
      </trkpt>
      <trkpt lat="45.38156" lon="5.81546">
        <ele>1751.599975586</ele>
        <time>2012-02-18T12:11:03Z</time>
      </trkpt>
      <trkpt lat="45.38155" lon="5.81574">
        <ele>1758.800048828</ele>
        <time>2012-02-18T12:11:49Z</time>
      </trkpt>
      <trkpt lat="45.38137" lon="5.81562">
        <ele>1758.199951172</ele>
        <time>2012-02-18T12:12:24Z</time>
      </trkpt>
      <trkpt lat="45.3812" lon="5.81558">
        <ele>1759.599975586</ele>
        <time>2012-02-18T12:12:54Z</time>
      </trkpt>
      <trkpt lat="45.38102" lon="5.81567">
        <ele>1764</ele>
        <time>2012-02-18T12:13:46Z</time>
      </trkpt>
      <trkpt lat="45.38038" lon="5.81547">
        <ele>1768.199951172</ele>
        <time>2012-02-18T12:15:21Z</time>
      </trkpt>
      <trkpt lat="45.38034" lon="5.81542">
        <ele>1767.800048828</ele>
        <time>2012-02-18T12:18:19Z</time>
      </trkpt>
      <trkpt lat="45.38034" lon="5.81546">
        <ele>1768.599975586</ele>
        <time>2012-02-18T12:24:26Z</time>
      </trkpt>
      <trkpt lat="45.38033" lon="5.81542">
        <ele>1768</ele>
        <time>2012-02-18T12:26:00Z</time>
      </trkpt>
      <trkpt lat="45.38035" lon="5.81547">
        <ele>1768.599975586</ele>
        <time>2012-02-18T12:29:15Z</time>
      </trkpt>
      <trkpt lat="45.38102" lon="5.8157">
        <ele>1764.599975586</ele>
        <time>2012-02-18T12:30:13Z</time>
      </trkpt>
      <trkpt lat="45.38147" lon="5.81552">
        <ele>1754.400024414</ele>
        <time>2012-02-18T12:30:47Z</time>
      </trkpt>
      <trkpt lat="45.38174" lon="5.81562">
        <ele>1755</ele>
        <time>2012-02-18T12:30:51Z</time>
      </trkpt>
      <trkpt lat="45.38212" lon="5.81591">
        <ele>1767</ele>
        <time>2012-02-18T12:30:57Z</time>
      </trkpt>
      <trkpt lat="45.38227" lon="5.81588">
        <ele>1767.800048828</ele>
        <time>2012-02-18T12:30:59Z</time>
      </trkpt>
      <trkpt lat="45.38249" lon="5.81607">
        <ele>1775.199951172</ele>
        <time>2012-02-18T12:31:03Z</time>
      </trkpt>
      <trkpt lat="45.38263" lon="5.81599">
        <ele>1766</ele>
        <time>2012-02-18T12:31:06Z</time>
      </trkpt>
      <trkpt lat="45.38279" lon="5.81604">
        <ele>1759.199951172</ele>
        <time>2012-02-18T12:31:09Z</time>
      </trkpt>
      <trkpt lat="45.3829" lon="5.81621">
        <ele>1759.199951172</ele>
        <time>2012-02-18T12:31:12Z</time>
      </trkpt>
      <trkpt lat="45.38296" lon="5.81608">
        <ele>1751.599975586</ele>
        <time>2012-02-18T12:31:14Z</time>
      </trkpt>
      <trkpt lat="45.38313" lon="5.81619">
        <ele>1747</ele>
        <time>2012-02-18T12:31:20Z</time>
      </trkpt>
      <trkpt lat="45.38317" lon="5.81615">
        <ele>1743.400024414</ele>
        <time>2012-02-18T12:31:22Z</time>
      </trkpt>
      <trkpt lat="45.3833" lon="5.81617">
        <ele>1737.800048828</ele>
        <time>2012-02-18T12:31:27Z</time>
      </trkpt>
      <trkpt lat="45.38335" lon="5.81603">
        <ele>1729.400024414</ele>
        <time>2012-02-18T12:31:30Z</time>
      </trkpt>
      <trkpt lat="45.38337" lon="5.81608">
        <ele>1730.800048828</ele>
        <time>2012-02-18T12:31:32Z</time>
      </trkpt>
      <trkpt lat="45.38342" lon="5.81606">
        <ele>1728.400024414</ele>
        <time>2012-02-18T12:32:27Z</time>
      </trkpt>
      <trkpt lat="45.38343" lon="5.81599">
        <ele>1725.199951172</ele>
        <time>2012-02-18T12:32:28Z</time>
      </trkpt>
      <trkpt lat="45.38359" lon="5.8159">
        <ele>1716.199951172</ele>
        <time>2012-02-18T12:32:32Z</time>
      </trkpt>
      <trkpt lat="45.38378" lon="5.81599">
        <ele>1714.199951172</ele>
        <time>2012-02-18T12:32:37Z</time>
      </trkpt>
      <trkpt lat="45.38379" lon="5.81555">
        <ele>1701.400024414</ele>
        <time>2012-02-18T12:32:48Z</time>
      </trkpt>
      <trkpt lat="45.38368" lon="5.81516">
        <ele>1696.199951172</ele>
        <time>2012-02-18T12:32:53Z</time>
      </trkpt>
      <trkpt lat="45.38357" lon="5.81435">
        <ele>1670.400024414</ele>
        <time>2012-02-18T12:33:01Z</time>
      </trkpt>
      <trkpt lat="45.38358" lon="5.81444">
        <ele>1674</ele>
        <time>2012-02-18T12:33:47Z</time>
      </trkpt>
      <trkpt lat="45.38347" lon="5.81446">
        <ele>1677.199951172</ele>
        <time>2012-02-18T12:34:27Z</time>
      </trkpt>
      <trkpt lat="45.38354" lon="5.81433">
        <ele>1670.199951172</ele>
        <time>2012-02-18T12:34:48Z</time>
      </trkpt>
      <trkpt lat="45.3838" lon="5.81445">
        <ele>1668.800048828</ele>
        <time>2012-02-18T12:34:58Z</time>
      </trkpt>
      <trkpt lat="45.38404" lon="5.81419">
        <ele>1654.400024414</ele>
        <time>2012-02-18T12:35:05Z</time>
      </trkpt>
      <trkpt lat="45.38416" lon="5.81384">
        <ele>1653.800048828</ele>
        <time>2012-02-18T12:35:08Z</time>
      </trkpt>
      <trkpt lat="45.38413" lon="5.8134">
        <ele>1657.199951172</ele>
        <time>2012-02-18T12:35:12Z</time>
      </trkpt>
      <trkpt lat="45.38414" lon="5.81348">
        <ele>1656.800048828</ele>
        <time>2012-02-18T12:35:17Z</time>
      </trkpt>
      <trkpt lat="45.3841" lon="5.81349">
        <ele>1656.599975586</ele>
        <time>2012-02-18T12:36:03Z</time>
      </trkpt>
      <trkpt lat="45.38411" lon="5.81344">
        <ele>1657</ele>
        <time>2012-02-18T12:36:57Z</time>
      </trkpt>
      <trkpt lat="45.38413" lon="5.8135">
        <ele>1656.599975586</ele>
        <time>2012-02-18T12:37:19Z</time>
      </trkpt>
      <trkpt lat="45.3841" lon="5.81344">
        <ele>1657</ele>
        <time>2012-02-18T12:37:46Z</time>
      </trkpt>
      <trkpt lat="45.38414" lon="5.8135">
        <ele>1656.599975586</ele>
        <time>2012-02-18T12:38:27Z</time>
      </trkpt>
      <trkpt lat="45.38409" lon="5.81347">
        <ele>1656.800048828</ele>
        <time>2012-02-18T12:39:50Z</time>
      </trkpt>
      <trkpt lat="45.38412" lon="5.81347">
        <ele>1656.800048828</ele>
        <time>2012-02-18T12:41:10Z</time>
      </trkpt>
      <trkpt lat="45.3841" lon="5.81345">
        <ele>1656.800048828</ele>
        <time>2012-02-18T12:41:20Z</time>
      </trkpt>
      <trkpt lat="45.38413" lon="5.81342">
        <ele>1657.199951172</ele>
        <time>2012-02-18T12:41:44Z</time>
      </trkpt>
      <trkpt lat="45.38415" lon="5.81346">
        <ele>1657</ele>
        <time>2012-02-18T12:42:54Z</time>
      </trkpt>
      <trkpt lat="45.38419" lon="5.81342">
        <ele>1657.599975586</ele>
        <time>2012-02-18T12:43:40Z</time>
      </trkpt>
      <trkpt lat="45.38415" lon="5.81332">
        <ele>1658.199951172</ele>
        <time>2012-02-18T12:44:01Z</time>
      </trkpt>
      <trkpt lat="45.38424" lon="5.81301">
        <ele>1666.800048828</ele>
        <time>2012-02-18T12:45:01Z</time>
      </trkpt>
      <trkpt lat="45.38419" lon="5.81282">
        <ele>1670.800048828</ele>
        <time>2012-02-18T12:45:50Z</time>
      </trkpt>
      <trkpt lat="45.38445" lon="5.81274">
        <ele>1677</ele>
        <time>2012-02-18T12:46:32Z</time>
      </trkpt>
      <trkpt lat="45.38445" lon="5.8124">
        <ele>1684.800048828</ele>
        <time>2012-02-18T12:47:12Z</time>
      </trkpt>
      <trkpt lat="45.3847" lon="5.81237">
        <ele>1689.599975586</ele>
        <time>2012-02-18T12:47:50Z</time>
      </trkpt>
      <trkpt lat="45.3847" lon="5.81215">
        <ele>1694.800048828</ele>
        <time>2012-02-18T12:48:19Z</time>
      </trkpt>
      <trkpt lat="45.38481" lon="5.81171">
        <ele>1707.400024414</ele>
        <time>2012-02-18T12:49:12Z</time>
      </trkpt>
      <trkpt lat="45.38469" lon="5.8115">
        <ele>1711.599975586</ele>
        <time>2012-02-18T12:49:47Z</time>
      </trkpt>
      <trkpt lat="45.38463" lon="5.81107">
        <ele>1723.599975586</ele>
        <time>2012-02-18T12:50:46Z</time>
      </trkpt>
      <trkpt lat="45.38479" lon="5.81098">
        <ele>1729.400024414</ele>
        <time>2012-02-18T12:51:16Z</time>
      </trkpt>
      <trkpt lat="45.38514" lon="5.81068">
        <ele>1738.400024414</ele>
        <time>2012-02-18T12:52:27Z</time>
      </trkpt>
      <trkpt lat="45.38508" lon="5.8106">
        <ele>1739.800048828</ele>
        <time>2012-02-18T12:52:40Z</time>
      </trkpt>
      <trkpt lat="45.3853" lon="5.81047">
        <ele>1738.199951172</ele>
        <time>2012-02-18T12:53:20Z</time>
      </trkpt>
      <trkpt lat="45.38523" lon="5.81038">
        <ele>1739.800048828</ele>
        <time>2012-02-18T12:53:39Z</time>
      </trkpt>
      <trkpt lat="45.38537" lon="5.81018">
        <ele>1738.599975586</ele>
        <time>2012-02-18T12:54:19Z</time>
      </trkpt>
      <trkpt lat="45.38544" lon="5.81018">
        <ele>1737.199951172</ele>
        <time>2012-02-18T12:56:52Z</time>
      </trkpt>
      <trkpt lat="45.38548" lon="5.81039">
        <ele>1735.800048828</ele>
        <time>2012-02-18T12:57:03Z</time>
      </trkpt>
      <trkpt lat="45.3856" lon="5.81048">
        <ele>1734</ele>
        <time>2012-02-18T12:57:07Z</time>
      </trkpt>
      <trkpt lat="45.38589" lon="5.8106">
        <ele>1731.199951172</ele>
        <time>2012-02-18T12:57:22Z</time>
      </trkpt>
      <trkpt lat="45.38589" lon="5.81056">
        <ele>1731.199951172</ele>
        <time>2012-02-18T12:57:27Z</time>
      </trkpt>
      <trkpt lat="45.38593" lon="5.81061">
        <ele>1731.400024414</ele>
        <time>2012-02-18T12:57:36Z</time>
      </trkpt>
      <trkpt lat="45.38632" lon="5.81065">
        <ele>1732.800048828</ele>
        <time>2012-02-18T12:58:03Z</time>
      </trkpt>
      <trkpt lat="45.3864" lon="5.81045">
        <ele>1730</ele>
        <time>2012-02-18T12:58:11Z</time>
      </trkpt>
      <trkpt lat="45.3866" lon="5.81024">
        <ele>1725.599975586</ele>
        <time>2012-02-18T12:58:20Z</time>
      </trkpt>
      <trkpt lat="45.38709" lon="5.80951">
        <ele>1709.199951172</ele>
        <time>2012-02-18T12:58:37Z</time>
      </trkpt>
      <trkpt lat="45.38719" lon="5.80923">
        <ele>1699.800048828</ele>
        <time>2012-02-18T12:58:41Z</time>
      </trkpt>
      <trkpt lat="45.38724" lon="5.80862">
        <ele>1700.199951172</ele>
        <time>2012-02-18T12:58:53Z</time>
      </trkpt>
      <trkpt lat="45.3872" lon="5.80776">
        <ele>1708.800048828</ele>
        <time>2012-02-18T13:00:01Z</time>
      </trkpt>
      <trkpt lat="45.38708" lon="5.80689">
        <ele>1726</ele>
        <time>2012-02-18T13:01:57Z</time>
      </trkpt>
      <trkpt lat="45.387" lon="5.80675">
        <ele>1728.800048828</ele>
        <time>2012-02-18T13:02:40Z</time>
      </trkpt>
      <trkpt lat="45.38709" lon="5.80667">
        <ele>1730.800048828</ele>
        <time>2012-02-18T13:03:02Z</time>
      </trkpt>
      <trkpt lat="45.38692" lon="5.80647">
        <ele>1732.199951172</ele>
        <time>2012-02-18T13:03:37Z</time>
      </trkpt>
      <trkpt lat="45.38725" lon="5.80629">
        <ele>1738</ele>
        <time>2012-02-18T13:04:35Z</time>
      </trkpt>
      <trkpt lat="45.38737" lon="5.80612">
        <ele>1742.199951172</ele>
        <time>2012-02-18T13:05:00Z</time>
      </trkpt>
      <trkpt lat="45.38754" lon="5.80571">
        <ele>1746.599975586</ele>
        <time>2012-02-18T13:05:21Z</time>
      </trkpt>
      <trkpt lat="45.3879" lon="5.80524">
        <ele>1746.599975586</ele>
        <time>2012-02-18T13:07:01Z</time>
      </trkpt>
      <trkpt lat="45.38788" lon="5.80528">
        <ele>1746.199951172</ele>
        <time>2012-02-18T13:13:50Z</time>
      </trkpt>
      <trkpt lat="45.38794" lon="5.80525">
        <ele>1747.800048828</ele>
        <time>2012-02-18T13:16:19Z</time>
      </trkpt>
      <trkpt lat="45.38789" lon="5.80527">
        <ele>1746.400024414</ele>
        <time>2012-02-18T13:16:51Z</time>
      </trkpt>
      <trkpt lat="45.38789" lon="5.80522">
        <ele>1745.800048828</ele>
        <time>2012-02-18T13:17:57Z</time>
      </trkpt>
      <trkpt lat="45.38792" lon="5.8053">
        <ele>1747.400024414</ele>
        <time>2012-02-18T13:18:55Z</time>
      </trkpt>
      <trkpt lat="45.38784" lon="5.80573">
        <ele>1748.800048828</ele>
        <time>2012-02-18T13:19:06Z</time>
      </trkpt>
      <trkpt lat="45.38766" lon="5.806">
        <ele>1745.599975586</ele>
        <time>2012-02-18T13:19:09Z</time>
      </trkpt>
      <trkpt lat="45.38767" lon="5.80622">
        <ele>1740.199951172</ele>
        <time>2012-02-18T13:19:12Z</time>
      </trkpt>
      <trkpt lat="45.38781" lon="5.80629">
        <ele>1737</ele>
        <time>2012-02-18T13:19:15Z</time>
      </trkpt>
      <trkpt lat="45.38773" lon="5.80673">
        <ele>1726.199951172</ele>
        <time>2012-02-18T13:19:25Z</time>
      </trkpt>
      <trkpt lat="45.3878" lon="5.80693">
        <ele>1718.599975586</ele>
        <time>2012-02-18T13:19:29Z</time>
      </trkpt>
      <trkpt lat="45.38801" lon="5.8071">
        <ele>1706.800048828</ele>
        <time>2012-02-18T13:19:35Z</time>
      </trkpt>
      <trkpt lat="45.38805" lon="5.80728">
        <ele>1699</ele>
        <time>2012-02-18T13:19:38Z</time>
      </trkpt>
      <trkpt lat="45.38816" lon="5.80723">
        <ele>1697.199951172</ele>
        <time>2012-02-18T13:19:40Z</time>
      </trkpt>
      <trkpt lat="45.38826" lon="5.80725">
        <ele>1693</ele>
        <time>2012-02-18T13:19:43Z</time>
      </trkpt>
      <trkpt lat="45.38824" lon="5.80723">
        <ele>1694.400024414</ele>
        <time>2012-02-18T13:19:57Z</time>
      </trkpt>
      <trkpt lat="45.38832" lon="5.8075">
        <ele>1680.199951172</ele>
        <time>2012-02-18T13:20:17Z</time>
      </trkpt>
      <trkpt lat="45.38903" lon="5.80735">
        <ele>1664</ele>
        <time>2012-02-18T13:20:34Z</time>
      </trkpt>
      <trkpt lat="45.38913" lon="5.80748">
        <ele>1654.599975586</ele>
        <time>2012-02-18T13:20:36Z</time>
      </trkpt>
      <trkpt lat="45.38924" lon="5.80747">
        <ele>1651.199951172</ele>
        <time>2012-02-18T13:20:38Z</time>
      </trkpt>
      <trkpt lat="45.38928" lon="5.80739">
        <ele>1653.599975586</ele>
        <time>2012-02-18T13:20:41Z</time>
      </trkpt>
      <trkpt lat="45.38934" lon="5.8075">
        <ele>1646.199951172</ele>
        <time>2012-02-18T13:20:43Z</time>
      </trkpt>
      <trkpt lat="45.38932" lon="5.80767">
        <ele>1641.800048828</ele>
        <time>2012-02-18T13:20:45Z</time>
      </trkpt>
      <trkpt lat="45.38941" lon="5.80764">
        <ele>1639.800048828</ele>
        <time>2012-02-18T13:20:47Z</time>
      </trkpt>
      <trkpt lat="45.38951" lon="5.8078">
        <ele>1630.599975586</ele>
        <time>2012-02-18T13:20:51Z</time>
      </trkpt>
      <trkpt lat="45.38947" lon="5.80781">
        <ele>1632.199951172</ele>
        <time>2012-02-18T13:21:20Z</time>
      </trkpt>
      <trkpt lat="45.38954" lon="5.8078">
        <ele>1629.800048828</ele>
        <time>2012-02-18T13:22:05Z</time>
      </trkpt>
      <trkpt lat="45.38995" lon="5.80804">
        <ele>1605</ele>
        <time>2012-02-18T13:22:13Z</time>
      </trkpt>
      <trkpt lat="45.39027" lon="5.80791">
        <ele>1600.400024414</ele>
        <time>2012-02-18T13:22:19Z</time>
      </trkpt>
      <trkpt lat="45.39041" lon="5.80777">
        <ele>1601</ele>
        <time>2012-02-18T13:22:57Z</time>
      </trkpt>
      <trkpt lat="45.39056" lon="5.80774">
        <ele>1597.599975586</ele>
        <time>2012-02-18T13:23:10Z</time>
      </trkpt>
      <trkpt lat="45.39069" lon="5.80785">
        <ele>1589.599975586</ele>
        <time>2012-02-18T13:23:14Z</time>
      </trkpt>
      <trkpt lat="45.39088" lon="5.80809">
        <ele>1575.800048828</ele>
        <time>2012-02-18T13:23:19Z</time>
      </trkpt>
      <trkpt lat="45.39112" lon="5.80828">
        <ele>1563.800048828</ele>
        <time>2012-02-18T13:23:23Z</time>
      </trkpt>
      <trkpt lat="45.39139" lon="5.80822">
        <ele>1558.199951172</ele>
        <time>2012-02-18T13:23:27Z</time>
      </trkpt>
      <trkpt lat="45.39175" lon="5.80831">
        <ele>1547</ele>
        <time>2012-02-18T13:23:33Z</time>
      </trkpt>
      <trkpt lat="45.39196" lon="5.80828">
        <ele>1539.199951172</ele>
        <time>2012-02-18T13:24:05Z</time>
      </trkpt>
      <trkpt lat="45.39193" lon="5.80831">
        <ele>1540</ele>
        <time>2012-02-18T13:25:08Z</time>
      </trkpt>
      <trkpt lat="45.39192" lon="5.80828">
        <ele>1540.599975586</ele>
        <time>2012-02-18T13:25:32Z</time>
      </trkpt>
      <trkpt lat="45.39199" lon="5.80835">
        <ele>1537.400024414</ele>
        <time>2012-02-18T13:25:45Z</time>
      </trkpt>
      <trkpt lat="45.39229" lon="5.80821">
        <ele>1527.800048828</ele>
        <time>2012-02-18T13:25:52Z</time>
      </trkpt>
      <trkpt lat="45.39246" lon="5.80795">
        <ele>1527.599975586</ele>
        <time>2012-02-18T13:26:00Z</time>
      </trkpt>
      <trkpt lat="45.39269" lon="5.80808">
        <ele>1517.800048828</ele>
        <time>2012-02-18T13:26:05Z</time>
      </trkpt>
      <trkpt lat="45.39291" lon="5.80802">
        <ele>1513</ele>
        <time>2012-02-18T13:26:23Z</time>
      </trkpt>
      <trkpt lat="45.39341" lon="5.80798">
        <ele>1499.199951172</ele>
        <time>2012-02-18T13:27:15Z</time>
      </trkpt>
      <trkpt lat="45.39353" lon="5.80816">
        <ele>1492.800048828</ele>
        <time>2012-02-18T13:27:20Z</time>
      </trkpt>
      <trkpt lat="45.39355" lon="5.80811">
        <ele>1493.199951172</ele>
        <time>2012-02-18T13:27:23Z</time>
      </trkpt>
      <trkpt lat="45.39376" lon="5.8081">
        <ele>1487.800048828</ele>
        <time>2012-02-18T13:27:31Z</time>
      </trkpt>
      <trkpt lat="45.39381" lon="5.8083">
        <ele>1483.400024414</ele>
        <time>2012-02-18T13:27:36Z</time>
      </trkpt>
      <trkpt lat="45.39424" lon="5.80838">
        <ele>1473</ele>
        <time>2012-02-18T13:27:44Z</time>
      </trkpt>
      <trkpt lat="45.39429" lon="5.80847">
        <ele>1471.800048828</ele>
        <time>2012-02-18T13:27:45Z</time>
      </trkpt>
      <trkpt lat="45.39451" lon="5.80862">
        <ele>1468.400024414</ele>
        <time>2012-02-18T13:27:50Z</time>
      </trkpt>
      <trkpt lat="45.39441" lon="5.8086">
        <ele>1469.800048828</ele>
        <time>2012-02-18T13:28:26Z</time>
      </trkpt>
      <trkpt lat="45.39486" lon="5.80823">
        <ele>1464.599975586</ele>
        <time>2012-02-18T13:28:57Z</time>
      </trkpt>
      <trkpt lat="45.395" lon="5.80806">
        <ele>1461.800048828</ele>
        <time>2012-02-18T13:29:02Z</time>
      </trkpt>
      <trkpt lat="45.39504" lon="5.80752">
        <ele>1459</ele>
        <time>2012-02-18T13:29:08Z</time>
      </trkpt>
      <trkpt lat="45.3952" lon="5.80708">
        <ele>1438.800048828</ele>
        <time>2012-02-18T13:29:13Z</time>
      </trkpt>
      <trkpt lat="45.39519" lon="5.80699">
        <ele>1435.199951172</ele>
        <time>2012-02-18T13:29:14Z</time>
      </trkpt>
      <trkpt lat="45.39506" lon="5.80671">
        <ele>1424.800048828</ele>
        <time>2012-02-18T13:29:19Z</time>
      </trkpt>
      <trkpt lat="45.39487" lon="5.80643">
        <ele>1415.599975586</ele>
        <time>2012-02-18T13:29:24Z</time>
      </trkpt>
      <trkpt lat="45.39457" lon="5.80626">
        <ele>1417.800048828</ele>
        <time>2012-02-18T13:29:29Z</time>
      </trkpt>
      <trkpt lat="45.39448" lon="5.80605">
        <ele>1407.599975586</ele>
        <time>2012-02-18T13:29:34Z</time>
      </trkpt>
      <trkpt lat="45.39451" lon="5.8061">
        <ele>1409.599975586</ele>
        <time>2012-02-18T13:29:50Z</time>
      </trkpt>
      <trkpt lat="45.39452" lon="5.80607">
        <ele>1407.199951172</ele>
        <time>2012-02-18T13:30:10Z</time>
      </trkpt>
      <trkpt lat="45.39439" lon="5.80595">
        <ele>1403.800048828</ele>
        <time>2012-02-18T13:30:22Z</time>
      </trkpt>
      <trkpt lat="45.39415" lon="5.80559">
        <ele>1395.599975586</ele>
        <time>2012-02-18T13:30:29Z</time>
      </trkpt>
      <trkpt lat="45.39363" lon="5.80408">
        <ele>1365</ele>
        <time>2012-02-18T13:30:54Z</time>
      </trkpt>
      <trkpt lat="45.39359" lon="5.80358">
        <ele>1353</ele>
        <time>2012-02-18T13:31:01Z</time>
      </trkpt>
      <trkpt lat="45.39372" lon="5.80338">
        <ele>1342.400024414</ele>
        <time>2012-02-18T13:31:05Z</time>
      </trkpt>
      <trkpt lat="45.39394" lon="5.80338">
        <ele>1334.199951172</ele>
        <time>2012-02-18T13:31:08Z</time>
      </trkpt>
      <trkpt lat="45.39404" lon="5.80353">
        <ele>1333.800048828</ele>
        <time>2012-02-18T13:31:11Z</time>
      </trkpt>
      <trkpt lat="45.39398" lon="5.80351">
        <ele>1335.599975586</ele>
        <time>2012-02-18T13:31:48Z</time>
      </trkpt>
      <trkpt lat="45.39402" lon="5.80352">
        <ele>1334.400024414</ele>
        <time>2012-02-18T13:32:00Z</time>
      </trkpt>
      <trkpt lat="45.39396" lon="5.80351">
        <ele>1336.400024414</ele>
        <time>2012-02-18T13:32:15Z</time>
      </trkpt>
      <trkpt lat="45.39409" lon="5.80351">
        <ele>1331.400024414</ele>
        <time>2012-02-18T13:32:23Z</time>
      </trkpt>
      <trkpt lat="45.39426" lon="5.80359">
        <ele>1327.199951172</ele>
        <time>2012-02-18T13:32:27Z</time>
      </trkpt>
      <trkpt lat="45.39437" lon="5.80354">
        <ele>1322.800048828</ele>
        <time>2012-02-18T13:32:30Z</time>
      </trkpt>
      <trkpt lat="45.39469" lon="5.80362">
        <ele>1314.199951172</ele>
        <time>2012-02-18T13:32:36Z</time>
      </trkpt>
      <trkpt lat="45.3949" lon="5.80353">
        <ele>1305.800048828</ele>
        <time>2012-02-18T13:32:40Z</time>
      </trkpt>
      <trkpt lat="45.3953" lon="5.80357">
        <ele>1296.599975586</ele>
        <time>2012-02-18T13:32:48Z</time>
      </trkpt>
      <trkpt lat="45.39541" lon="5.80353">
        <ele>1293.199951172</ele>
        <time>2012-02-18T13:32:50Z</time>
      </trkpt>
      <trkpt lat="45.39556" lon="5.8034">
        <ele>1287</ele>
        <time>2012-02-18T13:32:53Z</time>
      </trkpt>
      <trkpt lat="45.39565" lon="5.80339">
        <ele>1284.800048828</ele>
        <time>2012-02-18T13:32:55Z</time>
      </trkpt>
      <trkpt lat="45.3958" lon="5.80329">
        <ele>1279.400024414</ele>
        <time>2012-02-18T13:32:58Z</time>
      </trkpt>
      <trkpt lat="45.39587" lon="5.80316">
        <ele>1276.800048828</ele>
        <time>2012-02-18T13:33:00Z</time>
      </trkpt>
      <trkpt lat="45.39605" lon="5.80315">
        <ele>1273.599975586</ele>
        <time>2012-02-18T13:33:03Z</time>
      </trkpt>
      <trkpt lat="45.39619" lon="5.80305">
        <ele>1270</ele>
        <time>2012-02-18T13:33:05Z</time>
      </trkpt>
      <trkpt lat="45.39645" lon="5.80305">
        <ele>1265.199951172</ele>
        <time>2012-02-18T13:33:09Z</time>
      </trkpt>
      <trkpt lat="45.39657" lon="5.80298">
        <ele>1262</ele>
        <time>2012-02-18T13:33:11Z</time>
      </trkpt>
      <trkpt lat="45.39713" lon="5.80289">
        <ele>1253.800048828</ele>
        <time>2012-02-18T13:33:18Z</time>
      </trkpt>
      <trkpt lat="45.39789" lon="5.80257">
        <ele>1237.400024414</ele>
        <time>2012-02-18T13:33:30Z</time>
      </trkpt>
      <trkpt lat="45.39819" lon="5.80251">
        <ele>1229.599975586</ele>
        <time>2012-02-18T13:33:35Z</time>
      </trkpt>
      <trkpt lat="45.39837" lon="5.80255">
        <ele>1225.599975586</ele>
        <time>2012-02-18T13:33:39Z</time>
      </trkpt>
      <trkpt lat="45.39867" lon="5.80239">
        <ele>1218.400024414</ele>
        <time>2012-02-18T13:33:45Z</time>
      </trkpt>
      <trkpt lat="45.39876" lon="5.80218">
        <ele>1216.800048828</ele>
        <time>2012-02-18T13:33:48Z</time>
      </trkpt>
      <trkpt lat="45.39898" lon="5.80215">
        <ele>1211</ele>
        <time>2012-02-18T13:33:52Z</time>
      </trkpt>
      <trkpt lat="45.39904" lon="5.80218">
        <ele>1209.599975586</ele>
        <time>2012-02-18T13:33:53Z</time>
      </trkpt>
      <trkpt lat="45.39971" lon="5.80191">
        <ele>1188.599975586</ele>
        <time>2012-02-18T13:34:03Z</time>
      </trkpt>
      <trkpt lat="45.39982" lon="5.80176">
        <ele>1183</ele>
        <time>2012-02-18T13:34:06Z</time>
      </trkpt>
      <trkpt lat="45.3999" lon="5.80174">
        <ele>1180</ele>
        <time>2012-02-18T13:34:09Z</time>
      </trkpt>
      <trkpt lat="45.39998" lon="5.80186">
        <ele>1179.400024414</ele>
        <time>2012-02-18T13:34:12Z</time>
      </trkpt>
      <trkpt lat="45.40008" lon="5.8018">
        <ele>1176.400024414</ele>
        <time>2012-02-18T13:34:15Z</time>
      </trkpt>
      <trkpt lat="45.40024" lon="5.80146">
        <ele>1167.199951172</ele>
        <time>2012-02-18T13:34:18Z</time>
      </trkpt>
      <trkpt lat="45.40032" lon="5.80096">
        <ele>1156</ele>
        <time>2012-02-18T13:34:26Z</time>
      </trkpt>
      <trkpt lat="45.4003" lon="5.80104">
        <ele>1158</ele>
        <time>2012-02-18T13:35:40Z</time>
      </trkpt>
      <trkpt lat="45.40032" lon="5.80097">
        <ele>1156.199951172</ele>
        <time>2012-02-18T13:36:04Z</time>
      </trkpt>
      <trkpt lat="45.40022" lon="5.80059">
        <ele>1150</ele>
        <time>2012-02-18T13:36:10Z</time>
      </trkpt>
      <trkpt lat="45.4001" lon="5.8003">
        <ele>1145.400024414</ele>
        <time>2012-02-18T13:36:14Z</time>
      </trkpt>
      <trkpt lat="45.40011" lon="5.79998">
        <ele>1139</ele>
        <time>2012-02-18T13:36:17Z</time>
      </trkpt>
      <trkpt lat="45.40004" lon="5.79948">
        <ele>1139.400024414</ele>
        <time>2012-02-18T13:36:23Z</time>
      </trkpt>
      <trkpt lat="45.40006" lon="5.7993">
        <ele>1139.599975586</ele>
        <time>2012-02-18T13:36:27Z</time>
      </trkpt>
      <trkpt lat="45.39995" lon="5.79926">
        <ele>1139.800048828</ele>
        <time>2012-02-18T13:36:32Z</time>
      </trkpt>
      <trkpt lat="45.39992" lon="5.79929">
        <ele>1140.400024414</ele>
        <time>2012-02-18T13:36:37Z</time>
      </trkpt>
      <trkpt lat="45.39993" lon="5.79933">
        <ele>1140.400024414</ele>
        <time>2012-02-18T13:37:07Z</time>
      </trkpt>
    </trkseg>
  </trk>
</gpx>